createdAt,value
2018-07-27T00:00:41.038Z,99640.20
2018-07-27T00:03:16.365Z,99635.96
2018-07-27T00:05:49.395Z,99625.98
2018-07-27T00:08:22.431Z,99625.66
2018-07-27T00:10:57.751Z,99635.00
2018-07-27T00:13:35.158Z,99629.70
2018-07-27T00:16:08.051Z,99622.66
2018-07-27T00:18:40.364Z,99621.45
2018-07-27T00:21:15.866Z,99631.40
2018-07-27T00:23:50.298Z,99618.24
2018-07-27T00:26:24.158Z,99626.92
2018-07-27T00:28:58.857Z,99619.75
2018-07-27T00:31:33.325Z,99623.72
2018-07-27T00:34:06.728Z,99637.81
2018-07-27T00:36:38.850Z,99622.11
2018-07-27T00:39:11.829Z,99624.52
2018-07-27T00:41:44.644Z,99627.87
2018-07-27T00:44:17.756Z,99622.00
2018-07-27T00:46:51.188Z,99620.06
2018-07-27T00:49:25.126Z,99622.16
2018-07-27T00:51:58.291Z,99627.50
2018-07-27T00:54:33.590Z,99619.62
2018-07-27T00:57:07.535Z,99616.59
2018-07-27T00:59:40.081Z,99618.26
2018-07-27T01:02:14.929Z,99614.69
2018-07-27T01:04:49.854Z,99616.48
2018-07-27T01:07:22.772Z,99613.30
2018-07-27T01:09:55.566Z,99611.32
2018-07-27T01:12:28.900Z,99619.58
2018-07-27T01:15:01.485Z,99612.09
2018-07-27T01:17:37.847Z,99602.80
2018-07-27T01:20:10.080Z,99605.05
2018-07-27T01:22:41.668Z,99606.69
2018-07-27T01:25:13.224Z,99606.14
2018-07-27T01:27:46.326Z,99608.91
2018-07-27T01:30:19.101Z,99512.74
2018-07-27T01:32:51.270Z,99599.93
2018-07-27T01:35:25.536Z,99596.29
2018-07-27T01:38:00.091Z,99597.13
2018-07-27T01:40:32.409Z,99591.17
2018-07-27T01:43:05.425Z,99589.25
2018-07-27T01:45:37.830Z,99587.72
2018-07-27T01:48:11.250Z,99591.68
2018-07-27T01:50:43.063Z,99589.53
2018-07-27T01:53:14.584Z,99594.84
2018-07-27T01:55:46.189Z,99589.08
2018-07-27T01:58:18.639Z,99587.31
2018-07-27T02:00:50.179Z,99598.77
2018-07-27T02:03:22.304Z,99598.70
2018-07-27T02:05:59.746Z,99584.75
2018-07-27T02:08:32.288Z,99585.45
2018-07-27T02:11:03.820Z,99583.14
2018-07-27T02:13:35.862Z,99581.55
2018-07-27T02:16:08.422Z,99586.78
2018-07-27T02:18:43.586Z,99588.58
2018-07-27T02:21:18.285Z,99587.50
2018-07-27T02:23:54.268Z,99583.42
2018-07-27T02:26:28.140Z,99586.46
2018-07-27T02:29:00.364Z,99578.86
2018-07-27T02:31:33.695Z,99575.16
2018-07-27T02:34:06.503Z,99573.97
2018-07-27T02:36:38.886Z,99577.03
2018-07-27T02:39:12.594Z,99581.76
2018-07-27T02:41:45.855Z,99574.88
2018-07-27T02:44:17.677Z,99579.34
2018-07-27T02:46:49.758Z,99576.00
2018-07-27T02:49:23.116Z,99579.09
2018-07-27T02:51:54.632Z,99578.53
2018-07-27T02:54:27.038Z,99575.45
2018-07-27T02:57:00.057Z,99570.23
2018-07-27T02:59:33.288Z,99572.25
2018-07-27T03:02:04.718Z,99563.98
2018-07-27T03:04:36.177Z,99563.49
2018-07-27T03:07:08.621Z,99568.53
2018-07-27T03:09:40.958Z,99576.73
2018-07-27T03:12:13.348Z,99579.27
2018-07-27T03:14:44.882Z,99572.98
2018-07-27T03:17:16.447Z,99577.44
2018-07-27T03:19:48.302Z,99567.82
2018-07-27T03:22:20.577Z,99568.59
2018-07-27T03:24:53.103Z,99575.52
2018-07-27T03:27:24.589Z,99576.71
2018-07-27T03:29:56.159Z,99574.27
2018-07-27T03:32:27.715Z,99570.16
2018-07-27T03:35:00.276Z,99573.47
2018-07-27T03:37:33.103Z,99563.99
2018-07-27T03:40:06.775Z,99569.88
2018-07-27T03:42:38.245Z,99568.84
2018-07-27T03:45:10.452Z,99568.30
2018-07-27T03:47:42.134Z,99565.05
2018-07-27T03:50:13.649Z,99566.74
2018-07-27T03:52:45.290Z,99566.69
2018-07-27T03:55:16.892Z,99569.76
2018-07-27T03:57:48.443Z,99560.96
2018-07-27T04:00:20.735Z,99564.95
2018-07-27T04:02:51.499Z,99561.78
2018-07-27T04:05:23.054Z,99562.11
2018-07-27T04:07:54.623Z,99557.25
2018-07-27T04:10:26.493Z,99552.47
2018-07-27T04:12:58.599Z,99554.52
2018-07-27T04:15:32.249Z,99552.47
2018-07-27T04:18:04.724Z,99555.86
2018-07-27T04:20:36.324Z,99556.34
2018-07-27T04:23:07.907Z,99562.38
2018-07-27T04:25:40.600Z,99560.94
2018-07-27T04:28:12.423Z,99554.84
2018-07-27T04:30:44.776Z,99560.06
2018-07-27T04:33:16.477Z,99556.38
2018-07-27T04:35:47.971Z,99563.17
2018-07-27T04:38:20.042Z,99564.29
2018-07-27T04:40:51.856Z,99560.30
2018-07-27T04:43:24.388Z,99552.22
2018-07-27T04:45:56.881Z,99556.25
2018-07-27T04:48:28.378Z,99564.83
2018-07-27T04:51:01.492Z,99567.55
2018-07-27T04:53:33.132Z,99543.67
2018-07-27T04:56:06.158Z,99565.86
2018-07-27T04:58:37.638Z,99564.95
2018-07-27T05:01:09.772Z,99565.20
2018-07-27T05:03:43.018Z,99569.72
2018-07-27T05:06:15.540Z,99571.94
2018-07-27T05:08:52.241Z,99572.13
2018-07-27T05:11:28.481Z,99572.39
2018-07-27T05:13:59.997Z,99571.98
2018-07-27T05:16:31.548Z,99569.02
2018-07-27T05:19:03.079Z,99575.54
2018-07-27T05:21:34.681Z,99574.39
2018-07-27T05:24:06.261Z,99574.38
2018-07-27T05:26:38.597Z,99576.30
2018-07-27T05:29:10.141Z,99577.72
2018-07-27T05:31:41.728Z,99573.06
2018-07-27T05:34:14.185Z,99577.38
2018-07-27T05:36:45.762Z,99499.22
2018-07-27T05:39:18.512Z,99582.99
2018-07-27T05:41:50.958Z,99583.64
2018-07-27T05:44:23.113Z,99592.52
2018-07-27T05:46:55.363Z,99585.62
2018-07-27T05:49:28.241Z,99587.64
2018-07-27T05:52:01.609Z,99587.82
2018-07-27T05:54:33.223Z,99591.42
2018-07-27T05:57:05.111Z,99600.16
2018-07-27T05:59:36.668Z,99594.78
2018-07-27T06:02:10.437Z,99595.78
2018-07-27T06:04:41.669Z,99599.33
2018-07-27T06:07:13.719Z,99599.80
2018-07-27T06:10:06.032Z,99602.48
2018-07-27T06:12:50.338Z,99602.09
2018-07-27T06:15:24.821Z,99600.34
2018-07-27T06:17:56.714Z,99595.02
2018-07-27T06:20:30.151Z,99597.02
2018-07-27T06:23:03.324Z,99591.93
2018-07-27T06:25:35.027Z,99591.63
2018-07-27T06:28:07.759Z,99591.24
2018-07-27T06:30:40.749Z,99593.03
2018-07-27T06:33:13.848Z,99585.94
2018-07-27T06:35:49.669Z,99591.14
2018-07-27T06:38:24.806Z,99601.30
2018-07-27T06:40:57.059Z,99598.21
2018-07-27T06:43:31.023Z,99601.00
2018-07-27T06:46:03.405Z,99599.97
2018-07-27T06:48:35.292Z,99599.88
2018-07-27T06:51:09.317Z,99601.15
2018-07-27T06:53:41.527Z,99602.81
2018-07-27T06:56:14.355Z,99616.19
2018-07-27T06:58:46.219Z,99611.19
2018-07-27T07:01:19.976Z,99611.94
2018-07-27T07:03:52.368Z,99613.55
2018-07-27T07:06:29.039Z,99618.14
2018-07-27T07:09:04.135Z,99616.34
2018-07-27T07:11:36.065Z,99618.52
2018-07-27T07:14:10.875Z,99597.10
2018-07-27T07:16:43.167Z,99614.13
2018-07-27T07:19:17.713Z,99610.81
2018-07-27T07:21:50.872Z,99603.31
2018-07-27T07:24:23.902Z,99598.93
2018-07-27T07:26:57.843Z,99596.16
2018-07-27T07:29:34.948Z,99598.72
2018-07-27T07:32:09.814Z,99605.03
2018-07-27T07:34:42.307Z,99597.69
2018-07-27T07:37:16.190Z,99602.38
2018-07-27T07:39:50.095Z,99597.75
2018-07-27T07:42:21.791Z,99598.17
2018-07-27T07:44:54.824Z,99597.44
2018-07-27T07:47:34.497Z,99593.52
2018-07-27T07:50:09.196Z,99591.89
2018-07-27T07:52:41.499Z,99596.58
2018-07-27T07:55:13.751Z,99599.02
2018-07-27T07:57:46.005Z,99595.44
2018-07-27T08:00:22.358Z,99594.33
2018-07-27T08:02:56.340Z,99588.48
2018-07-27T08:05:29.926Z,99594.59
2018-07-27T08:08:06.105Z,99594.15
2018-07-27T08:10:43.566Z,99580.80
2018-07-27T08:13:19.030Z,99577.86
2018-07-27T08:15:53.952Z,99577.43
2018-07-27T08:18:27.733Z,99578.66
2018-07-27T08:21:02.594Z,99579.32
2018-07-27T08:23:36.314Z,99577.47
2018-07-27T08:26:49.313Z,99583.38
2018-07-27T08:29:25.739Z,99582.72
2018-07-27T08:32:02.025Z,99574.36
2018-07-27T08:34:34.531Z,99567.23
2018-07-27T08:37:07.695Z,99571.72
2018-07-27T08:39:42.058Z,99564.90
2018-07-27T08:42:15.184Z,99570.08
2018-07-27T08:44:49.728Z,99564.58
2018-07-27T08:47:22.500Z,99561.20
2018-07-27T08:49:57.897Z,99541.09
2018-07-27T08:52:33.011Z,99552.59
2018-07-27T08:55:08.697Z,99545.22
2018-07-27T08:57:42.656Z,99545.16
2018-07-27T09:00:29.484Z,99544.59
2018-07-27T09:03:05.901Z,99547.30
2018-07-27T09:05:40.153Z,99541.59
2018-07-27T09:08:14.454Z,99542.88
2018-07-27T09:10:47.686Z,99539.75
2018-07-27T09:13:18.910Z,99538.02
2018-07-27T09:15:57.621Z,99540.38
2018-07-27T09:18:32.433Z,99535.78
2018-07-27T09:21:07.666Z,99532.09
2018-07-27T09:23:42.149Z,99538.72
2018-07-27T09:26:18.268Z,99528.72
2018-07-27T09:28:54.138Z,99534.92
2018-07-27T09:31:32.432Z,99533.19
2018-07-27T09:34:09.343Z,99523.05
2018-07-27T09:36:47.015Z,99534.79
2018-07-27T09:39:22.057Z,99524.19
2018-07-27T09:41:56.520Z,99527.45
2018-07-27T09:44:29.465Z,99524.88
2018-07-27T09:47:03.296Z,99522.31
2018-07-27T09:49:41.684Z,99521.50
2018-07-27T09:52:28.057Z,99523.48
2018-07-27T09:55:06.026Z,99528.09
2018-07-27T09:57:43.621Z,99517.75
2018-07-27T10:00:54.826Z,99519.98
2018-07-27T10:03:32.016Z,99514.30
2018-07-27T10:06:06.042Z,99516.50
2018-07-27T10:08:44.242Z,99509.66
2018-07-27T10:11:19.268Z,99505.70
2018-07-27T10:13:54.946Z,99504.33
2018-07-27T10:16:28.725Z,99504.09
2018-07-27T10:19:07.718Z,99507.92
2018-07-27T10:21:42.425Z,99503.47
2018-07-27T10:24:18.924Z,99489.67
2018-07-27T10:26:51.634Z,99491.25
2018-07-27T10:29:24.603Z,99500.84
2018-07-27T10:32:10.076Z,99498.81
2018-07-27T10:34:52.446Z,99495.02
2018-07-27T10:37:26.195Z,99490.26
2018-07-27T10:40:07.210Z,99492.44
2018-07-27T10:42:41.333Z,99486.31
2018-07-27T10:45:36.051Z,99481.71
2018-07-27T10:48:13.436Z,99482.31
2018-07-27T10:50:50.673Z,99473.92
2018-07-27T10:53:25.838Z,99472.93
2018-07-27T10:55:59.986Z,99467.45
2018-07-27T10:58:37.428Z,99472.16
2018-07-27T11:01:20.944Z,99464.48
2018-07-27T11:03:54.015Z,99459.75
2018-07-27T11:06:28.439Z,99471.45
2018-07-27T11:09:02.272Z,99461.03
2018-07-27T11:11:35.487Z,99448.15
2018-07-27T11:14:11.108Z,99454.48
2018-07-27T11:16:43.891Z,99452.73
2018-07-27T11:19:17.734Z,99452.17
2018-07-27T11:21:53.113Z,99451.32
2018-07-27T11:24:30.928Z,99446.20
2018-07-27T11:27:05.458Z,99446.67
2018-07-27T11:29:38.694Z,99446.90
2018-07-27T11:32:15.732Z,99448.72
2018-07-27T11:34:49.719Z,99440.81
2018-07-27T11:37:23.911Z,99436.41
2018-07-27T11:40:08.009Z,99437.84
2018-07-27T11:42:42.344Z,99439.63
2018-07-27T11:45:41.873Z,99429.48
2018-07-27T11:48:21.043Z,99430.16
2018-07-27T11:50:56.161Z,99433.28
2018-07-27T11:53:34.956Z,99424.75
2018-07-27T11:56:13.560Z,99416.74
2018-07-27T11:58:52.138Z,99414.75
2018-07-27T12:01:25.266Z,99399.47
2018-07-27T12:03:58.534Z,99409.12
2018-07-27T12:06:36.456Z,99410.63
2018-07-27T12:09:16.396Z,99400.94
2018-07-27T12:11:50.295Z,99400.34
2018-07-27T12:14:24.628Z,99393.66
2018-07-27T12:17:00.088Z,99395.16
2018-07-27T12:19:33.069Z,99392.02
2018-07-27T12:22:06.680Z,99390.25
2018-07-27T12:24:40.793Z,99389.52
2018-07-27T12:27:11.952Z,99382.34
2018-07-27T12:29:43.355Z,99379.59
2018-07-27T12:32:20.299Z,99368.73
2018-07-27T12:34:55.432Z,99379.36
2018-07-27T12:37:28.377Z,99381.84
2018-07-27T12:40:02.688Z,99382.63
2018-07-27T12:42:37.335Z,99372.05
2018-07-27T12:45:18.598Z,99362.30
2018-07-27T12:47:52.080Z,99361.23
2018-07-27T12:50:25.741Z,99356.16
2018-07-27T12:52:58.860Z,99350.91
2018-07-27T12:55:33.510Z,99359.30
2018-07-27T12:58:07.980Z,99349.55
2018-07-27T13:00:45.383Z,99357.81
2018-07-27T13:03:22.350Z,99343.70
2018-07-27T13:05:55.290Z,99345.28
2018-07-27T13:08:27.124Z,99338.23
2018-07-27T13:10:58.885Z,99340.48
2018-07-27T13:13:33.851Z,99340.86
2018-07-27T13:16:07.498Z,99336.73
2018-07-27T13:18:40.739Z,99336.84
2018-07-27T13:21:15.233Z,99340.30
2018-07-27T13:24:00.242Z,99327.93
2018-07-27T13:26:38.645Z,99331.53
2018-07-27T13:29:11.488Z,99329.31
2018-07-27T13:31:52.444Z,99325.79
2018-07-27T13:34:43.240Z,99321.55
2018-07-27T13:37:19.570Z,99314.87
2018-07-27T13:39:52.507Z,99313.79
2018-07-27T13:42:26.553Z,99311.48
2018-07-27T13:45:00.615Z,99306.11
2018-07-27T13:47:36.441Z,99293.46
2018-07-27T13:50:09.001Z,99293.90
2018-07-27T13:52:47.423Z,99299.51
2018-07-27T13:55:21.584Z,99292.12
2018-07-27T13:57:55.452Z,99285.29
2018-07-27T14:03:31.758Z,99279.47
2018-07-27T14:06:11.671Z,99275.21
2018-07-27T14:08:46.692Z,99276.64
2018-07-27T14:11:21.236Z,99272.05
2018-07-27T14:13:54.424Z,99271.95
2018-07-27T14:16:28.452Z,99261.33
2018-07-27T14:19:03.894Z,99254.96
2018-07-27T14:21:37.981Z,99255.81
2018-07-27T14:24:10.498Z,99262.38
2018-07-27T14:26:44.925Z,99261.94
2018-07-27T14:29:17.009Z,99256.05
2018-07-27T14:31:51.524Z,99259.27
2018-07-27T14:34:25.987Z,99250.11
2018-07-27T14:37:00.670Z,99250.91
2018-07-27T14:39:34.255Z,99252.35
2018-07-27T14:42:10.752Z,99245.85
2018-07-27T14:44:44.750Z,99242.00
2018-07-27T14:47:17.652Z,99250.65
2018-07-27T14:49:55.329Z,99243.22
2018-07-27T14:52:34.259Z,99239.35
2018-07-27T14:55:10.119Z,99239.52
2018-07-27T14:57:44.765Z,99228.80
2018-07-27T15:00:37.055Z,99224.81
2018-07-27T15:04:17.430Z,99228.25
2018-07-27T15:06:50.325Z,99222.14
2018-07-27T15:09:31.294Z,99216.15
2018-07-27T15:12:11.393Z,99207.71
2018-07-27T15:14:47.929Z,99207.08
2018-07-27T15:17:23.292Z,99208.03
2018-07-27T15:20:00.471Z,99206.86
2018-07-27T15:22:35.477Z,99203.83
2018-07-27T15:25:08.045Z,99197.67
2018-07-27T15:27:41.702Z,99196.39
2018-07-27T15:30:45.016Z,99195.58
2018-07-27T15:33:33.492Z,99191.49
2018-07-27T15:36:13.436Z,99191.97
2018-07-27T15:42:39.222Z,99183.39
2018-07-27T15:45:10.832Z,99193.31
2018-07-27T15:47:42.435Z,99192.10
2018-07-27T15:50:21.388Z,99190.70
2018-07-27T15:52:55.368Z,99183.64
2018-07-27T15:55:28.106Z,99187.16
2018-07-27T15:57:59.727Z,99183.77
2018-07-27T16:00:32.975Z,99176.22
2018-07-27T16:03:07.076Z,99178.94
2018-07-27T16:08:05.096Z,99165.91
2018-07-27T16:10:37.364Z,99171.10
2018-07-27T16:13:10.772Z,99167.86
2018-07-27T16:15:43.756Z,99164.84
2018-07-27T16:18:16.845Z,99166.45
2018-07-27T16:20:54.478Z,99166.73
2018-07-27T16:23:27.642Z,99161.39
2018-07-27T16:26:01.758Z,99156.19
2018-07-27T16:28:33.381Z,99154.65
2018-07-27T16:31:05.935Z,99162.75
2018-07-27T16:33:37.596Z,99157.91
2018-07-27T16:36:09.206Z,99154.09
2018-07-27T16:38:42.543Z,99148.92
2018-07-27T16:41:14.984Z,99157.72
2018-07-27T16:43:47.376Z,99153.16
2018-07-27T16:46:18.984Z,99150.55
2018-07-27T16:48:51.993Z,99149.97
2018-07-27T16:51:23.569Z,99143.37
2018-07-27T16:53:55.927Z,99140.94
2018-07-27T16:56:29.711Z,99145.63
2018-07-27T17:01:33.859Z,99142.22
2018-07-27T17:04:06.020Z,99128.52
2018-07-27T17:06:37.612Z,99135.20
2018-07-27T17:09:10.706Z,99133.06
2018-07-27T17:11:42.448Z,99131.63
2018-07-27T17:14:14.909Z,99130.95
2018-07-27T17:16:48.120Z,99141.58
2018-07-27T17:19:20.481Z,99139.11
2018-07-27T17:21:56.595Z,99137.30
2018-07-27T17:24:30.204Z,99137.08
2018-07-27T17:27:03.707Z,99132.83
2018-07-27T17:29:36.844Z,99133.98
2018-07-27T17:32:09.083Z,99132.41
2018-07-27T17:34:42.642Z,99136.91
2018-07-27T17:37:15.414Z,99131.14
2018-07-27T17:39:51.403Z,99131.69
2018-07-27T17:42:23.474Z,99129.89
2018-07-27T17:44:55.046Z,99137.34
2018-07-27T17:47:26.651Z,99132.14
2018-07-27T17:49:58.559Z,99137.49
2018-07-27T17:52:31.293Z,99140.33
2018-07-27T17:55:04.118Z,99138.59
2018-07-27T17:57:36.884Z,99133.22
2018-07-27T18:00:09.367Z,99138.13
2018-07-27T18:02:43.497Z,99139.19
2018-07-27T18:05:15.305Z,99130.67
2018-07-27T18:07:51.914Z,99140.67
2018-07-27T18:10:25.406Z,99140.67
2018-07-27T18:12:57.831Z,99137.27
2018-07-27T18:15:31.431Z,99137.58
2018-07-27T18:18:03.462Z,99140.17
2018-07-27T18:20:35.423Z,99135.73
2018-07-27T18:23:09.430Z,99134.28
2018-07-27T18:25:42.494Z,99132.48
2018-07-27T18:28:15.580Z,99128.59
2018-07-27T18:30:48.449Z,99129.02
2018-07-27T18:33:20.840Z,99130.40
2018-07-27T18:35:57.559Z,99126.48
2018-07-27T18:38:29.683Z,99129.09
2018-07-27T18:41:10.076Z,99125.92
2018-07-27T18:43:43.321Z,99126.31
2018-07-27T18:46:18.763Z,99124.30
2018-07-27T18:48:50.629Z,99123.00
2018-07-27T18:51:22.310Z,99128.11
2018-07-27T18:53:53.952Z,99127.13
2018-07-27T18:56:29.301Z,99116.98
2018-07-27T18:59:02.587Z,99126.11
2018-07-27T19:01:34.247Z,99131.19
2018-07-27T19:04:07.272Z,99115.76
2018-07-27T19:06:39.148Z,99125.59
2018-07-27T19:09:14.661Z,99129.69
2018-07-27T19:11:48.777Z,99085.22
2018-07-27T19:14:20.849Z,99070.58
2018-07-27T19:16:55.583Z,99152.30
2018-07-27T19:19:29.420Z,99083.69
2018-07-27T19:22:02.748Z,99148.64
2018-07-27T19:24:35.692Z,99149.48
2018-07-27T19:27:09.082Z,99144.52
2018-07-27T19:29:42.445Z,99147.52
2018-07-27T19:32:15.485Z,99143.08
2018-07-27T19:34:47.707Z,99150.04
2018-07-27T19:37:19.280Z,99146.58
2018-07-27T19:39:50.944Z,99147.47
2018-07-27T19:42:23.090Z,99152.86
2018-07-27T19:44:55.502Z,99159.13
2018-07-27T19:47:28.821Z,99157.08
2018-07-27T19:50:00.551Z,99162.84
2018-07-27T19:52:31.461Z,99168.41
2018-07-27T19:55:03.413Z,99166.93
2018-07-27T19:57:38.750Z,99169.80
2018-07-27T20:00:12.569Z,99168.90
2018-07-27T20:02:48.686Z,99164.26
2018-07-27T20:05:21.515Z,99165.89
2018-07-27T20:07:53.982Z,99164.24
2018-07-27T20:10:26.535Z,99165.36
2018-07-27T20:12:59.994Z,99164.30
2018-07-27T20:15:33.192Z,99170.15
2018-07-27T20:18:06.668Z,99169.33
2018-07-27T20:20:41.272Z,99165.99
2018-07-27T20:23:14.430Z,99165.30
2018-07-27T20:25:45.130Z,99162.70
2018-07-27T20:28:18.173Z,99163.80
2018-07-27T20:30:50.721Z,99157.44
2018-07-27T20:33:21.337Z,99161.20
2018-07-27T20:35:56.453Z,99159.35
2018-07-27T20:38:30.336Z,99159.64
2018-07-27T20:41:01.092Z,99157.33
2018-07-27T20:43:33.651Z,99165.56
2018-07-27T20:46:06.010Z,99170.70
2018-07-27T20:48:39.362Z,99171.63
2018-07-27T20:51:13.321Z,99160.56
2018-07-27T20:53:48.434Z,99168.44
2018-07-27T20:56:20.114Z,99160.31
2018-07-27T20:58:53.310Z,99169.99
2018-07-27T21:01:25.929Z,99164.56
2018-07-27T21:03:58.463Z,99165.48
2018-07-27T21:06:32.958Z,99160.27
2018-07-27T21:09:06.800Z,99162.44
2018-07-27T21:11:39.418Z,99171.69
2018-07-27T21:14:12.045Z,99166.87
2018-07-27T21:16:45.459Z,99163.04
2018-07-27T21:19:17.646Z,99171.13
2018-07-27T21:21:51.222Z,99166.23
2018-07-27T21:24:23.852Z,99169.64
2018-07-27T21:26:54.869Z,99173.67
2018-07-27T21:29:28.236Z,99168.09
2018-07-27T21:32:00.476Z,99163.24
2018-07-27T21:34:33.568Z,99165.20
2018-07-27T21:37:04.493Z,99168.67
2018-07-27T21:39:37.895Z,99169.64
2018-07-27T21:42:11.097Z,99171.30
2018-07-27T21:44:49.279Z,99166.35
2018-07-27T21:47:55.706Z,99164.38
2018-07-27T21:50:30.667Z,99169.16
2018-07-27T21:53:03.183Z,99166.83
2018-07-27T21:55:36.341Z,99170.16
2018-07-27T21:58:11.155Z,99168.20
2018-07-27T22:00:57.261Z,99168.42
2018-07-27T22:03:31.343Z,99170.38
2018-07-27T22:06:03.245Z,99172.49
2018-07-27T22:08:42.098Z,99172.20
2018-07-27T22:11:16.593Z,99172.40
2018-07-27T22:13:49.194Z,99164.69
2018-07-27T22:16:23.478Z,99165.84
2018-07-27T22:18:54.240Z,99161.81
2018-07-27T22:21:28.384Z,99166.59
2018-07-27T22:24:03.475Z,99156.78
2018-07-27T22:26:40.887Z,99166.73
2018-07-27T22:29:15.134Z,99160.97
2018-07-27T22:31:49.254Z,99159.75
2018-07-27T22:36:57.313Z,99156.84
2018-07-27T22:39:30.788Z,99153.05
2018-07-27T22:42:19.893Z,99157.34
2018-07-27T22:44:54.020Z,99154.24
2018-07-27T22:47:31.333Z,99155.63
2018-07-27T22:50:09.748Z,99152.30
2018-07-27T22:52:48.583Z,99156.61
2018-07-27T22:55:27.399Z,99153.52
2018-07-27T22:58:08.012Z,99156.72
2018-07-27T23:00:40.739Z,99151.95
2018-07-27T23:03:17.638Z,99154.20
2018-07-27T23:06:02.962Z,99148.72
2018-07-27T23:08:40.596Z,99148.72
2018-07-27T23:11:14.447Z,99146.05
2018-07-27T23:13:52.513Z,99153.00
2018-07-27T23:16:27.106Z,99146.66
2018-07-27T23:19:01.786Z,99144.08
2018-07-27T23:21:36.293Z,99152.19
2018-07-27T23:24:12.449Z,99122.98
2018-07-27T23:26:44.472Z,99133.31
2018-07-27T23:29:19.400Z,99131.09
2018-07-27T23:31:57.833Z,99129.25
2018-07-27T23:34:31.648Z,99127.59
2018-07-27T23:43:08.443Z,99124.95
2018-07-27T23:45:45.496Z,99123.23
2018-07-27T23:48:22.172Z,99115.68
2018-07-27T23:50:58.645Z,99119.55
2018-07-27T23:53:35.626Z,99113.91
2018-07-27T23:56:07.705Z,99104.86
2018-07-27T23:58:40.651Z,99108.94
